Flight Track Log - Related Links

Times and Time Zones

All times are in EDT time to prevent confusion due to time zone crossing. See the ASA614 flight status page for this flight to view local times or setup timezone preferences in your user account.

Time Position Orientation Groundspeed Altitude Reporting Facility
EDT Latitude Longitude Course Direction KTS MPH feet Rate Location/Type
Wed 02:23:38 PM 47.4258 -122.3089 152° Southeast 168 193 1,300  Level Seattle Center
Wed 02:24:46 PM 47.3583 -122.3086 180° South 224 258 3,100 2,093 Climbing Seattle Center
Wed 02:25:47 PM 47.2881 -122.2894 170° South 259 298 5,800 2,656 Climbing Seattle Center
Wed 02:26:48 PM 47.2122 -122.2572 164° South 265 305 8,500 2,607 Climbing Seattle Center
Wed 02:27:49 PM 47.1381 -122.2233 163° South 279 321 11,100 2,244 Climbing Seattle Center
Wed 02:28:51 PM 47.0514 -122.1836 163° South 329 379 13,100 2,439 Climbing Seattle Center
Wed 02:29:00 PM 46.8532 -121.8559 152° Southeast  Level Estimated
Wed 02:29:52 PM 46.9511 -122.1381 163° South 351 404 16,100  Level Seattle Center
Wed 02:30:53 PM 46.8700 -122.1036 164° South 365 420 18,400 2,508 Climbing Seattle Center
Wed 02:31:54 PM 46.7517 -122.0500 163° South 375 432 21,200 2,341 Climbing Seattle Center
Wed 02:32:56 PM 46.6483 -122.0025 162° South 390 449 23,200 1,902 Climbing Seattle Center
Wed 02:33:57 PM 46.5403 -121.9586 164° South 404 465 25,100 1,967 Climbing Seattle Center
Wed 02:34:58 PM 46.4317 -121.9186 166° South 406 467 27,200 1,770 Climbing Seattle Center
Wed 02:35:59 PM 46.3208 -121.8758 165° South 414 476 28,700 1,463 Climbing Seattle Center
Wed 02:37:01 PM 46.2017 -121.8283 165° South 421 484 30,200 1,610 Climbing Seattle Center
Wed 02:38:02 PM 46.0869 -121.7847 165° South 427 491 32,000 1,525 Climbing Seattle Center
Wed 02:39:03 PM 45.9800 -121.7172 156° South 432 497 33,300 1,328 Climbing Seattle Center
Wed 02:40:04 PM 45.8817 -121.6228 146° Southeast 427 491 34,700 1,366 Climbing Seattle Center
Wed 02:41:06 PM 45.7839 -121.5358 148° Southeast 420 483 36,100 1,122 Climbing Seattle Center
Wed 02:42:07 PM 45.6767 -121.4867 162° South 406 467 37,000 443 Climbing Seattle Center
Wed 02:43:08 PM 45.5461 -121.4317 164° South 409 471 37,000  Level Seattle Center
Wed 02:44:09 PM 45.4358 -121.3869 164° South 414 476 37,000  Level Seattle Center
Wed 02:45:11 PM 45.3289 -121.3411 163° South 407 468 37,000  Level Seattle Center
Wed 02:46:12 PM 45.2214 -121.2964 164° South 405 466 37,000  Level Seattle Center
Wed 02:47:13 PM 45.1142 -121.2522 164° South 404 465 37,000  Level Seattle Center
Wed 02:48:15 PM 45.0072 -121.2078 164° South 404 465 37,000  Level Seattle Center
Wed 02:49:16 PM 44.9017 -121.1639 164° South 400 460 37,000  Level Seattle Center
Wed 02:50:17 PM 44.7972 -121.1208 164° South 396 456 37,000  Level Seattle Center
Wed 02:51:19 PM 44.6725 -121.0700 164° South 391 450 37,000  Level Seattle Center
Wed 02:52:20 PM 44.5778 -121.0319 164° South 394 453 37,000  Level Seattle Center
Wed 02:53:21 PM 44.4733 -120.9886 164° South 391 450 37,000  Level Seattle Center
Wed 02:54:23 PM 44.3600 -120.9436 164° South 390 449 37,000  Level Seattle Center
Wed 02:55:24 PM 44.2553 -120.9011 164° South 393 452 37,000  Level Seattle Center
Wed 02:56:25 PM 44.1514 -120.8594 164° South 391 450 37,000  Level Seattle Center
Wed 02:57:26 PM 44.0506 -120.8200 164° South 383 441 37,000  Level Seattle Center
Wed 02:58:28 PM 43.9303 -120.7700 163° South 378 435 37,000  Level Seattle Center
Wed 02:59:29 PM 43.8297 -120.7306 164° South 378 435 37,000  Level Seattle Center
Wed 03:00:30 PM 43.7294 -120.6908 164° South 378 435 37,000  Level Seattle Center
Wed 03:01:32 PM 43.6283 -120.6503 164° South 378 435 37,000  Level Seattle Center
Wed 03:02:33 PM 43.5239 -120.6117 165° South 380 437 37,000  Level Seattle Center
Wed 03:03:34 PM 43.4211 -120.5717 164° South 383 441 37,000  Level Seattle Center
Wed 03:04:36 PM 43.3178 -120.5297 164° South 386 444 37,000  Level Seattle Center
Wed 03:05:37 PM 43.2186 -120.4925 165° South 383 441 37,000  Level Seattle Center
Wed 03:06:38 PM 43.1164 -120.4514 164° South 382 440 37,000  Level Seattle Center
Wed 03:07:39 PM 43.0128 -120.4133 165° South 385 443 37,000  Level Seattle Center
Wed 03:08:41 PM 42.8889 -120.3633 164° South 387 445 37,000  Level Seattle Center
Wed 03:09:42 PM 42.7842 -120.3250 165° South 388 447 37,000  Level Seattle Center
Wed 03:10:43 PM 42.6803 -120.2828 163° South 391 450 37,000  Level Seattle Center
Wed 03:11:44 PM 42.5756 -120.2433 164° South 392 451 37,000  Level Seattle Center
Wed 03:12:46 PM 42.4706 -120.2039 165° South 392 451 37,000  Level Seattle Center
Wed 03:13:47 PM 42.3653 -120.1661 165° South 393 452 37,000  Level Seattle Center
Wed 03:14:48 PM 42.2606 -120.1258 164° South 392 451 37,000  Level Seattle Center
Wed 03:15:49 PM 42.1481 -120.0850 165° South 395 455 37,000  Level Seattle Center
Wed 03:16:51 PM 42.0422 -120.0461 165° South 393 452 37,000 -146 Level Seattle Center
Wed 03:17:52 PM 41.9306 -120.0050 165° South 393 452 36,700 -639 Descending Seattle Center
Wed 03:18:53 PM 41.8256 -119.9672 165° South 390 449 35,700 -836 Descending Seattle Center
Wed 03:19:54 PM 41.7214 -119.9297 165° South 388 447 35,000 -341 Descending Seattle Center
Wed 03:20:56 PM 41.6167 -119.8908 164° South 389 448 35,000  Level Seattle Center
Wed 03:21:57 PM 41.5122 -119.8517 164° South 390 449 35,000  Level Seattle Center
Wed 03:22:58 PM 41.3922 -119.8094 165° South 395 455 35,000  Level Seattle Center
Wed 03:23:30 PM 41.3436 -119.7897 163° South 394 453 35,000  Level Oakland Center
Wed 03:24:00 PM 41.2908 -119.7722 166° South 395 455 35,000  Level Seattle Center
Wed 03:25:01 PM 41.1711 -119.7286 165° South 398 458 35,000  Level Seattle Center
Wed 03:26:02 PM 41.0681 -119.6908 165° South 400 460 35,000  Level Seattle Center
Wed 03:27:04 PM 40.9475 -119.6475 165° South 402 463 35,000  Level Seattle Center
Wed 03:28:05 PM 40.8539 -119.6142 165° South 402 463 35,000  Level Seattle Center
Wed 03:28:38 PM 40.7894 -119.5903 164° South 402 463 35,000  Level Oakland Center
Wed 03:29:39 PM 40.6808 -119.5533 166° South 402 463 35,000  Level Oakland Center
Wed 03:30:41 PM 40.5742 -119.5133 164° South 401 461 35,000  Level Oakland Center
Wed 03:31:42 PM 40.4669 -119.4775 166° South 397 457 35,000  Level Oakland Center
Wed 03:32:44 PM 40.3369 -119.4308 165° South 403 464 35,000  Level Oakland Center
Wed 03:33:45 PM 40.2286 -119.3919 165° South 406 467 35,000  Level Oakland Center
Wed 03:34:47 PM 40.1200 -119.3539 165° South 404 465 35,000  Level Oakland Center
Wed 03:35:48 PM 40.0106 -119.3181 166° South 405 466 35,000  Level Oakland Center
Wed 03:36:50 PM 39.9017 -119.2800 165° South 405 466 35,000  Level Oakland Center
Wed 03:37:52 PM 39.7917 -119.2408 165° South 407 468 35,000  Level Oakland Center
Wed 03:38:53 PM 39.6814 -119.2033 165° South 411 473 35,000  Level Oakland Center
Wed 03:39:55 PM 39.5489 -119.1578 165° South 413 475 35,000  Level Oakland Center
Wed 03:40:56 PM 39.4378 -119.1189 165° South 416 479 35,000  Level Oakland Center
Wed 03:41:58 PM 39.3244 -119.0806 165° South 415 478 35,000  Level Oakland Center
Wed 03:42:59 PM 39.2125 -119.0419 165° South 416 479 35,000 -293 Level Oakland Center
Wed 03:44:01 PM 39.1061 -119.0067 166° South 414 476 34,400 -732 Descending Oakland Center
Wed 03:45:02 PM 38.9944 -118.9653 164° South 419 482 33,500 -683 Descending Oakland Center
Wed 03:46:04 PM 38.8822 -118.8425 140° Southeast 447 514 33,000 -244 Descending Oakland Center
Wed 03:47:05 PM 38.7931 -118.7311 136° Southeast 449 517 33,000  Level Oakland Center
Wed 03:48:07 PM 38.7014 -118.6194 136° Southeast 455 524 33,000  Level Oakland Center
Wed 03:49:08 PM 38.6097 -118.5056 136° Southeast 459 528 33,000  Level Oakland Center
Wed 03:50:10 PM 38.5183 -118.3933 136° Southeast 458 527 33,000  Level Oakland Center
Wed 03:51:11 PM 38.4275 -118.2831 136° Southeast 453 521 33,000  Level Oakland Center
Wed 03:52:13 PM 38.3381 -118.1747 136° Southeast 447 514 33,000  Level Oakland Center
Wed 03:53:14 PM 38.2414 -118.0581 137° Southeast 448 516 33,000  Level Oakland Center
Wed 03:54:16 PM 38.1506 -117.9478 136° Southeast 453 521 33,000  Level Oakland Center
Wed 03:55:18 PM 38.0600 -117.8400 137° Southeast 450 518 33,000  Level Oakland Center
Wed 03:56:19 PM 37.9469 -117.7197 140° Southeast 446 513 33,000  Level Oakland Center
Wed 03:57:21 PM 37.8458 -117.6353 147° Southeast 439 505 33,000  Level Oakland Center
Wed 03:58:22 PM 37.7456 -117.5497 146° Southeast 437 503 33,000  Level Oakland Center
Wed 03:59:24 PM 37.6453 -117.4625 145° Southeast 440 506 33,000  Level Oakland Center
Wed 04:00:16 PM 37.5644 -117.3928 146° Southeast 443 510 33,000  Level Los Angeles Center
Wed 04:01:30 PM 37.4419 -117.2897 146° Southeast 442 509 33,000  Level Los Angeles Center
Wed 04:02:33 PM 37.3192 -117.1853 146° Southeast 445 512 33,000  Level Los Angeles Center
Wed 04:03:35 PM 37.2167 -117.0972 146° Southeast 447 514 33,000  Level Los Angeles Center
Wed 04:04:37 PM 37.1133 -117.0097 146° Southeast 448 516 33,000  Level Los Angeles Center
Wed 04:05:39 PM 37.0094 -116.9244 147° Southeast 447 514 33,000  Level Los Angeles Center
Wed 04:06:41 PM 36.8847 -116.8175 146° Southeast 452 520 33,000 -145 Level Los Angeles Center
Wed 04:07:43 PM 36.7828 -116.7267 144° Southeast 451 519 32,700 -1,452 Descending Los Angeles Center
Wed 04:08:45 PM 36.6994 -116.6017 130° Southeast 466 536 30,000 -2,468 Descending Los Angeles Center
Wed 04:09:47 PM 36.6169 -116.4844 131° Southeast 455 524 27,600 -2,323 Descending Los Angeles Center
Wed 04:10:49 PM 36.5381 -116.3725 131° Southeast 438 504 25,200 -2,323 Descending Los Angeles Center
Wed 04:11:51 PM 36.4583 -116.2592 131° Southeast 421 484 22,800 -2,382 Descending Los Angeles Center
Wed 04:13:05 PM 36.3589 -116.1228 132° Southeast 407 468 19,800 -2,304 Descending Los Angeles Center
Wed 04:13:56 PM 36.3006 -116.0356 130° Southeast 391 450 18,000 -2,217 Descending Los Angeles Center
Wed 04:14:37 PM 36.2517 -115.9706 133° Southeast 379 436 16,400 -968 Descending Los Angeles Center
Wed 04:16:00 PM 36.1806 -115.8347 123° Southeast 338 389 16,000 -189 Descending Los Angeles Center
Wed 04:16:44 PM 36.1544 -115.7544 112° Southeast 329 379 16,000 -743 Level Los Angeles Center
Wed 04:17:45 PM 36.1219 -115.6531 112° Southeast 323 372 14,700 -1,377 Descending Los Angeles Center
Wed 04:18:46 PM 36.0878 -115.5528 113° Southeast 308 354 13,200 -1,459 Descending Los Angeles Center
Wed 04:19:36 PM 36.0647 -115.4750 110° East 301 346 12,000 -1,317 Descending Los Angeles Center
Wed 04:20:08 PM 36.0511 -115.4394 115° Southeast 299 344 11,400 -909 Descending Los Angeles Center
Wed 04:20:42 PM 36.0322 -115.3742 110° East 295 339 11,000 -876 Descending Los Angeles Center
Wed 04:21:37 PM 36.0239 -115.2864 97° East 278 320 10,100 -857 Descending Los Angeles Center
Wed 04:22:13 PM 36.0192 -115.2311 96° East 278 320 9,700 -545 Descending Los Angeles Center
Wed 04:23:27 PM 36.0147 -115.1561 94° East 239 275 9,100 -1,106 Descending Los Angeles Center
Wed 04:24:34 PM 36.0097 -115.0625 94° East 201 231 7,100 -1,403 Descending Los Angeles Center
Wed 04:25:31 PM 36.0044 -115.0056 97° East 203 234 6,200 -574 Descending Los Angeles Center
Wed 04:26:29 PM 36.0058 -114.9361 89° East 191 220 6,000 -96 Descending Los Angeles Center
Wed 04:27:36 PM 36.0275 -114.8744 67° East 210 242 6,000 -234 Level Los Angeles Center
Wed 04:28:37 PM 36.0731 -114.8978 338° Northwest 198 228 5,500 -629 Descending Los Angeles Center
Wed 04:29:40 PM 36.0714 -114.9592 268° West 195 224 4,700 -983 Descending Los Angeles Center
Wed 04:30:33 PM 36.0736 -115.0175 273° West 172 198 3,600 -919 Descending Los Angeles Center
Wed 04:31:44 PM 36.0719 -115.0711 268° West 170 196 2,800 -672 Descending Los Angeles Center
Wed 04:32:47 PM 36.0728 -115.1242 271° West 162 186 2,100 -667 Descending Los Angeles Center
Wed 04:34:00 PM 36.0667 -115.1500 270° West  Level FlightAware Approximate

Login

Don't have an account? Register now (free) for customized features, flight alerts, and more!